Time;durP1;ratioP1;P1;durP2;ratioP2;P2;SDS_P1;SDS_P2;PMS_P1;PMS_P2;Temp;Humidity;BMP_temperature;BMP_pressure;BME280_temperature;BME280_humidity;BME280_pressure;Samples;Min_cycle;Max_cycle;Signal;HPM_P1;HPM_P2
2023/12/06 00:01:31;;;;;;;24.83;17.23;;;2.00;99.90;;;;;;5001269;28;20021;-65
2023/12/06 00:03:57;;;;;;;28.40;18.63;;;2.00;99.90;;;;;;5009488;28;20033;-64
2023/12/06 00:06:24;;;;;;;26.75;18.35;;;2.00;99.90;;;;;;5006903;28;20056;-64
2023/12/06 00:08:52;;;;;;;27.80;19.40;;;2.00;99.90;;;;;;5005746;28;20867;-64
2023/12/06 00:11:18;;;;;;;25.00;17.23;;;2.00;99.90;;;;;;5005204;28;20018;-62
2023/12/06 00:13:44;;;;;;;24.67;17.58;;;1.90;99.90;;;;;;5012147;28;20111;-63
2023/12/06 00:16:09;;;;;;;25.80;17.88;;;1.90;99.90;;;;;;5011920;28;20619;-62
2023/12/06 00:18:35;;;;;;;24.88;17.08;;;1.90;99.90;;;;;;5017019;28;20568;-64
2023/12/06 00:21:01;;;;;;;24.10;17.00;;;1.90;99.90;;;;;;5009870;28;20037;-70
2023/12/06 00:23:26;;;;;;;24.73;16.15;;;1.90;99.90;;;;;;5011851;28;20119;-70
2023/12/06 00:25:52;;;;;;;23.52;16.70;;;1.90;99.90;;;;;;5011287;28;20056;-70
2023/12/06 00:28:17;;;;;;;22.17;15.90;;;1.90;99.90;;;;;;5011494;28;20065;-70
2023/12/06 00:30:43;;;;;;;24.83;17.30;;;2.00;99.90;;;;;;5008932;28;20042;-76
2023/12/06 00:33:09;;;;;;;25.50;17.42;;;1.90;99.90;;;;;;5009679;28;20030;-68
2023/12/06 00:35:34;;;;;;;23.58;16.63;;;1.90;99.90;;;;;;5014393;28;20022;-70
2023/12/06 00:38:00;;;;;;;23.58;16.73;;;1.90;99.90;;;;;;5012643;28;20021;-70
2023/12/06 00:40:25;;;;;;;22.52;15.70;;;1.80;99.90;;;;;;5012470;28;20487;-69
2023/12/06 00:42:51;;;;;;;20.95;15.07;;;1.80;99.90;;;;;;5013758;28;20040;-68
2023/12/06 00:45:16;;;;;;;22.63;14.98;;;1.80;99.90;;;;;;5007734;28;20454;-68
2023/12/06 00:47:42;;;;;;;25.35;16.40;;;1.80;99.90;;;;;;5007001;28;20053;-67
2023/12/06 00:50:08;;;;;;;24.63;17.73;;;1.90;99.90;;;;;;5008558;28;20041;-68
2023/12/06 00:52:34;;;;;;;23.42;16.05;;;1.90;99.90;;;;;;5009097;28;20869;-68
2023/12/06 00:55:00;;;;;;;19.45;15.60;;;1.90;99.90;;;;;;5006817;28;20033;-69
2023/12/06 00:57:25;;;;;;;21.55;14.30;;;1.90;99.90;;;;;;4999882;28;20159;-69
2023/12/06 00:59:51;;;;;;;22.02;15.32;;;1.90;99.90;;;;;;5006574;28;20036;-69
2023/12/06 01:02:16;;;;;;;64.70;46.28;;;1.80;99.90;;;;;;5001544;28;20081;-70
2023/12/06 01:04:42;;;;;;;208.75;143.23;;;1.80;99.90;;;;;;5000049;28;20247;-70
2023/12/06 01:07:08;;;;;;;178.30;118.88;;;1.80;99.90;;;;;;5004057;28;20029;-70
2023/12/06 01:09:33;;;;;;;144.77;99.38;;;1.80;99.90;;;;;;5003363;28;20033;-69
2023/12/06 01:11:59;;;;;;;46.03;33.13;;;1.80;99.90;;;;;;5003553;28;20434;-69
2023/12/06 01:14:25;;;;;;;41.22;29.35;;;1.70;99.90;;;;;;4999803;28;20688;-69
2023/12/06 01:16:50;;;;;;;25.52;18.08;;;1.70;99.90;;;;;;5004608;28;20057;-65
2023/12/06 01:19:16;;;;;;;21.60;15.77;;;1.70;99.90;;;;;;5005236;28;20057;-64
2023/12/06 01:21:43;;;;;;;22.17;15.70;;;1.70;99.90;;;;;;5003502;28;20076;-65
2023/12/06 01:24:08;;;;;;;21.42;15.57;;;1.70;99.90;;;;;;5005906;28;20034;-65
2023/12/06 01:26:34;;;;;;;21.33;15.52;;;1.80;99.90;;;;;;5007378;28;20771;-65
2023/12/06 01:29:03;;;;;;;21.30;15.32;;;1.80;99.90;;;;;;5006034;28;20046;-65
2023/12/06 01:31:29;;;;;;;21.75;14.63;;;1.80;99.90;;;;;;5002710;28;20021;-65
2023/12/06 01:33:55;;;;;;;20.65;16.25;;;1.80;99.90;;;;;;5003419;28;20065;-65
2023/12/06 01:36:20;;;;;;;20.90;14.88;;;1.80;99.90;;;;;;5001432;28;20183;-70
2023/12/06 01:38:47;;;;;;;20.45;15.52;;;1.80;99.90;;;;;;5007730;28;20513;-69
2023/12/06 01:41:12;;;;;;;20.80;14.80;;;1.90;99.90;;;;;;4999494;28;20569;-69
2023/12/06 01:43:43;;;;;;;22.92;16.48;;;1.90;99.90;;;;;;5007411;28;20041;-70
2023/12/06 01:46:09;;;;;;;27.25;19.42;;;2.00;99.90;;;;;;5006072;28;20092;-69
2023/12/06 01:48:35;;;;;;;24.80;16.63;;;2.00;99.90;;;;;;5002575;28;20498;-69
2023/12/06 01:51:01;;;;;;;24.60;16.08;;;2.00;99.90;;;;;;5003725;28;20033;-69
2023/12/06 01:53:27;;;;;;;20.30;14.38;;;2.00;99.90;;;;;;5008211;28;20037;-69
2023/12/06 01:55:53;;;;;;;20.92;14.85;;;2.00;99.90;;;;;;5000888;28;20239;-69
2023/12/06 01:58:19;;;;;;;20.50;14.82;;;2.00;99.90;;;;;;4998634;28;20308;-70
2023/12/06 02:00:45;;;;;;;23.83;16.08;;;1.90;99.90;;;;;;5002577;28;20504;-69
2023/12/06 02:03:12;;;;;;;24.40;15.88;;;2.00;99.90;;;;;;5003653;28;20037;-69
2023/12/06 02:05:37;;;;;;;24.15;16.45;;;1.90;99.90;;;;;;5001591;28;20187;-68
2023/12/06 02:08:04;;;;;;;23.63;16.27;;;1.90;99.90;;;;;;5002251;28;20260;-69
2023/12/06 02:10:29;;;;;;;22.33;17.38;;;1.90;99.90;;;;;;5004067;28;20536;-69
2023/12/06 02:12:55;;;;;;;22.63;16.27;;;1.90;99.90;;;;;;5003436;28;20045;-69
2023/12/06 02:15:21;;;;;;;27.52;19.02;;;1.90;99.90;;;;;;5004446;28;20036;-69
2023/12/06 02:17:48;;;;;;;23.80;18.05;;;1.90;99.90;;;;;;5004799;28;20120;-69
2023/12/06 02:20:14;;;;;;;27.70;21.38;;;1.90;99.90;;;;;;5003100;28;20078;-69
2023/12/06 02:22:41;;;;;;;24.02;17.35;;;1.90;99.90;;;;;;4997741;28;20030;-69
2023/12/06 02:25:15;;;;;;;20.75;15.07;;;1.80;99.90;;;;;;5004236;28;20779;-69
2023/12/06 02:27:41;;;;;;;22.42;16.55;;;1.80;99.90;;;;;;5005094;28;20069;-69
2023/12/06 02:30:09;;;;;;;25.77;17.77;;;1.80;99.90;;;;;;5000883;28;20069;-69
2023/12/06 02:32:35;;;;;;;24.80;16.67;;;1.80;99.90;;;;;;5001101;28;20043;-69
2023/12/06 02:35:03;;;;;;;24.83;16.42;;;1.80;99.90;;;;;;5000884;28;20148;-69
2023/12/06 02:37:29;;;;;;;22.80;15.75;;;1.70;99.90;;;;;;4996862;28;20083;-69
2023/12/06 02:39:56;;;;;;;21.45;15.25;;;1.70;99.90;;;;;;5000627;28;20446;-69
2023/12/06 02:42:22;;;;;;;20.90;14.65;;;1.70;99.90;;;;;;5003788;28;20440;-69
2023/12/06 02:44:47;;;;;;;22.52;17.13;;;1.70;99.90;;;;;;5007395;28;20026;-69
2023/12/06 02:47:14;;;;;;;21.08;15.40;;;1.70;99.90;;;;;;5007955;28;20140;-69
2023/12/06 02:49:39;;;;;;;23.92;17.25;;;1.70;99.90;;;;;;5001241;28;20514;-64
2023/12/06 02:52:05;;;;;;;23.75;17.15;;;1.60;99.90;;;;;;5001558;28;20037;-64
2023/12/06 02:54:31;;;;;;;21.08;16.13;;;1.60;99.90;;;;;;5002521;28;20024;-64
2023/12/06 02:56:57;;;;;;;20.98;15.05;;;1.60;99.90;;;;;;5006069;28;20030;-64
2023/12/06 02:59:22;;;;;;;26.77;20.15;;;1.60;99.90;;;;;;5007607;28;20088;-64
2023/12/06 03:01:48;;;;;;;22.60;17.83;;;1.50;99.90;;;;;;5005385;28;20030;-64
2023/12/06 03:04:13;;;;;;;20.40;15.18;;;1.60;99.90;;;;;;5006250;28;20901;-64
2023/12/06 03:06:39;;;;;;;20.83;16.58;;;1.60;99.90;;;;;;5002993;28;20225;-64
2023/12/06 03:09:05;;;;;;;24.63;18.15;;;1.70;99.90;;;;;;5006294;28;20040;-64
2023/12/06 03:11:31;;;;;;;24.70;17.92;;;1.60;99.90;;;;;;5004464;28;21355;-64
2023/12/06 03:13:56;;;;;;;23.08;17.25;;;1.70;99.90;;;;;;5006786;28;20489;-64
2023/12/06 03:16:22;;;;;;;21.90;17.13;;;1.70;99.90;;;;;;5004873;28;20063;-64
2023/12/06 03:18:47;;;;;;;19.95;15.48;;;1.70;99.90;;;;;;5000391;28;20495;-64
2023/12/06 03:21:13;;;;;;;23.35;15.82;;;1.70;99.90;;;;;;5002973;28;20044;-64
2023/12/06 03:23:39;;;;;;;20.77;15.32;;;1.70;99.90;;;;;;5000626;28;20495;-64
2023/12/06 03:26:07;;;;;;;20.65;15.75;;;1.80;99.90;;;;;;5003112;28;20030;-69
2023/12/06 03:28:33;;;;;;;19.52;15.15;;;1.80;99.90;;;;;;5005046;28;20053;-69
2023/12/06 03:31:00;;;;;;;20.30;14.70;;;1.80;99.90;;;;;;5004476;28;20037;-69
2023/12/06 03:33:26;;;;;;;20.08;15.15;;;1.80;99.90;;;;;;5007148;28;20034;-69
2023/12/06 03:35:51;;;;;;;22.20;15.95;;;1.80;99.90;;;;;;5002916;28;20494;-69
2023/12/06 03:38:17;;;;;;;21.17;15.20;;;1.70;99.90;;;;;;5005542;28;20029;-69
2023/12/06 03:40:42;;;;;;;21.20;15.35;;;1.80;99.90;;;;;;5003704;28;20378;-69
2023/12/06 03:43:08;;;;;;;20.48;15.30;;;1.80;99.90;;;;;;5000076;28;20160;-69
2023/12/06 03:45:34;;;;;;;20.92;15.35;;;1.80;99.90;;;;;;4993861;28;20750;-69
2023/12/06 03:48:01;;;;;;;20.50;15.32;;;1.80;99.90;;;;;;5004472;28;20064;-69
2023/12/06 03:50:26;;;;;;;23.13;17.42;;;1.90;99.90;;;;;;5002018;28;20394;-69
2023/12/06 03:52:52;;;;;;;21.45;17.00;;;1.80;99.90;;;;;;5004691;28;20057;-68
2023/12/06 03:55:18;;;;;;;20.50;14.80;;;1.80;99.90;;;;;;5007331;28;20034;-69
2023/12/06 03:57:43;;;;;;;18.63;13.85;;;1.80;99.90;;;;;;4999835;28;20702;-69
2023/12/06 04:00:10;;;;;;;21.42;14.77;;;1.90;99.90;;;;;;5005437;28;20171;-69
2023/12/06 04:02:36;;;;;;;18.65;14.20;;;1.90;99.90;;;;;;5005229;28;20045;-69
2023/12/06 04:05:02;;;;;;;22.33;15.88;;;1.90;99.90;;;;;;5006656;28;20114;-69
2023/12/06 04:07:28;;;;;;;19.38;14.55;;;1.90;99.90;;;;;;4999957;28;20056;-70
2023/12/06 04:09:54;;;;;;;19.10;14.15;;;1.90;99.90;;;;;;5007725;28;20325;-69
2023/12/06 04:12:19;;;;;;;18.80;14.73;;;1.90;99.90;;;;;;5009305;28;20034;-69
2023/12/06 04:14:45;;;;;;;18.38;13.23;;;1.80;99.90;;;;;;5007355;28;20218;-69
2023/12/06 04:17:11;;;;;;;17.20;13.30;;;1.90;99.90;;;;;;5007798;28;20110;-69
2023/12/06 04:19:38;;;;;;;19.42;14.63;;;1.90;99.90;;;;;;5010561;28;20067;-69
2023/12/06 04:22:04;;;;;;;18.80;14.13;;;1.90;99.90;;;;;;5008277;28;20041;-69
2023/12/06 04:24:30;;;;;;;18.02;13.80;;;1.90;99.90;;;;;;5009456;28;20037;-69
2023/12/06 04:26:56;;;;;;;18.95;13.77;;;1.90;99.90;;;;;;5011187;28;20436;-69
2023/12/06 04:29:22;;;;;;;15.70;12.95;;;1.90;99.90;;;;;;5011215;28;20045;-69
2023/12/06 04:31:48;;;;;;;17.25;12.30;;;1.90;99.90;;;;;;5006087;28;20053;-69
2023/12/06 04:34:14;;;;;;;16.73;12.45;;;1.90;99.90;;;;;;5011120;28;20108;-69
2023/12/06 04:36:40;;;;;;;17.13;13.02;;;1.90;99.90;;;;;;5009193;28;20469;-69
2023/12/06 04:39:05;;;;;;;17.17;12.68;;;1.90;99.90;;;;;;5010953;28;20052;-64
2023/12/06 04:41:31;;;;;;;15.73;12.18;;;2.00;99.90;;;;;;5005537;28;20033;-64
2023/12/06 04:43:57;;;;;;;19.90;13.55;;;2.00;99.90;;;;;;5009126;28;20045;-64
2023/12/06 04:46:22;;;;;;;18.88;12.32;;;1.90;99.90;;;;;;5005666;28;20041;-65
2023/12/06 04:48:48;;;;;;;17.63;12.15;;;1.90;99.90;;;;;;5011908;28;20100;-64
2023/12/06 04:51:15;;;;;;;17.83;12.88;;;1.80;99.90;;;;;;5006455;28;20031;-64
2023/12/06 04:53:41;;;;;;;16.20;12.52;;;1.90;99.90;;;;;;5011685;28;20048;-64
2023/12/06 04:56:07;;;;;;;19.52;12.82;;;1.90;99.90;;;;;;5006205;28;20030;-64
2023/12/06 04:58:32;;;;;;;19.58;13.50;;;1.90;99.90;;;;;;5008822;28;20060;-64
2023/12/06 05:00:58;;;;;;;18.63;13.23;;;1.90;99.90;;;;;;5014680;28;20117;-64
2023/12/06 05:03:24;;;;;;;19.75;13.38;;;1.90;99.90;;;;;;5013093;28;20033;-64
2023/12/06 05:05:49;;;;;;;18.15;14.20;;;1.90;99.90;;;;;;5010688;28;20071;-64
2023/12/06 05:08:15;;;;;;;19.15;13.75;;;2.00;99.90;;;;;;5008147;28;20038;-64
2023/12/06 05:10:41;;;;;;;17.15;13.25;;;2.00;99.90;;;;;;5006399;28;20409;-64
2023/12/06 05:13:06;;;;;;;18.85;12.75;;;2.00;99.90;;;;;;5003725;28;21829;-64
2023/12/06 05:15:32;;;;;;;16.38;12.70;;;2.00;99.90;;;;;;5006846;28;20771;-64
2023/12/06 05:17:58;;;;;;;18.33;13.10;;;2.00;99.90;;;;;;5010207;28;20037;-64
2023/12/06 05:20:23;;;;;;;18.58;14.27;;;2.10;99.90;;;;;;5018823;28;20037;-64
2023/12/06 05:22:49;;;;;;;18.27;12.25;;;2.10;99.90;;;;;;5011611;28;20566;-64
2023/12/06 05:25:14;;;;;;;32.90;27.58;;;2.10;99.90;;;;;;5008792;28;20145;-65
2023/12/06 05:27:40;;;;;;;50.63;42.72;;;2.10;99.90;;;;;;5011836;28;20156;-64
2023/12/06 05:30:06;;;;;;;19.08;14.18;;;2.10;99.90;;;;;;5011836;28;20068;-64
2023/12/06 05:32:32;;;;;;;18.45;13.90;;;2.10;99.90;;;;;;5011280;28;20128;-65
2023/12/06 05:34:57;;;;;;;21.17;12.55;;;2.10;99.90;;;;;;5013315;28;20039;-64
2023/12/06 05:37:23;;;;;;;20.60;14.65;;;2.20;99.90;;;;;;5011783;28;20108;-64
2023/12/06 05:39:49;;;;;;;18.90;14.30;;;2.20;99.90;;;;;;5011124;28;20041;-64
2023/12/06 05:42:16;;;;;;;20.02;14.43;;;2.20;99.90;;;;;;5015956;28;20059;-64
2023/12/06 05:44:42;;;;;;;19.17;13.90;;;2.30;99.90;;;;;;5008252;28;20042;-63
2023/12/06 05:47:07;;;;;;;18.75;13.50;;;2.20;99.90;;;;;;5000271;28;20037;-64
2023/12/06 05:49:33;;;;;;;15.60;12.60;;;2.20;99.90;;;;;;5010968;28;20438;-64
2023/12/06 05:51:58;;;;;;;18.83;13.88;;;2.30;99.90;;;;;;5009382;28;20230;-65
2023/12/06 05:54:24;;;;;;;19.13;12.90;;;2.20;99.90;;;;;;5011963;28;20033;-64
2023/12/06 05:56:49;;;;;;;20.52;14.02;;;2.20;99.90;;;;;;5010979;28;20060;-65
2023/12/06 05:59:15;;;;;;;18.60;13.38;;;2.20;99.90;;;;;;5009418;28;20036;-64
2023/12/06 06:01:41;;;;;;;18.27;12.98;;;2.20;99.90;;;;;;5008564;28;20474;-64
2023/12/06 06:04:06;;;;;;;15.75;12.00;;;2.20;99.90;;;;;;5006852;28;20022;-64
2023/12/06 06:06:36;;;;;;;23.63;17.00;;;2.30;99.90;;;;;;5004874;28;20029;-66
2023/12/06 06:09:02;;;;;;;32.17;25.33;;;2.20;99.90;;;;;;5006148;28;20045;-64
2023/12/06 06:11:28;;;;;;;42.92;33.55;;;2.20;99.90;;;;;;5000857;28;20026;-63
2023/12/06 06:13:54;;;;;;;30.95;25.05;;;2.20;99.90;;;;;;5001739;28;20468;-63
2023/12/06 06:16:20;;;;;;;24.85;20.55;;;2.10;99.90;;;;;;5003142;28;20079;-64
2023/12/06 06:18:46;;;;;;;24.08;19.33;;;2.10;99.90;;;;;;4997488;28;20037;-73
2023/12/06 06:21:12;;;;;;;23.98;18.70;;;2.10;99.90;;;;;;5000392;28;20042;-64
2023/12/06 06:23:37;;;;;;;20.30;17.10;;;2.20;99.90;;;;;;5007268;28;20463;-64
2023/12/06 06:26:03;;;;;;;17.77;13.82;;;2.20;99.90;;;;;;5007008;28;20152;-64
2023/12/06 06:28:29;;;;;;;18.88;13.82;;;2.10;99.90;;;;;;5002278;28;20041;-70
2023/12/06 06:30:55;;;;;;;17.85;12.75;;;2.10;99.90;;;;;;5004325;28;20051;-64
2023/12/06 06:33:21;;;;;;;17.13;12.02;;;2.10;99.90;;;;;;5007149;28;20446;-64
2023/12/06 06:35:46;;;;;;;16.38;11.73;;;2.10;99.90;;;;;;5003912;28;20065;-64
2023/12/06 06:38:12;;;;;;;16.90;12.68;;;2.20;99.90;;;;;;5005154;28;20034;-64
2023/12/06 06:40:38;;;;;;;15.13;11.40;;;2.20;99.90;;;;;;5008191;28;20474;-64
2023/12/06 06:43:05;;;;;;;16.88;11.00;;;2.30;99.90;;;;;;5007417;28;20036;-64
2023/12/06 06:45:31;;;;;;;17.35;12.13;;;2.30;99.90;;;;;;5003576;28;20482;-64
2023/12/06 06:47:57;;;;;;;14.70;11.68;;;2.40;99.90;;;;;;5007800;28;20037;-64
2023/12/06 06:50:23;;;;;;;16.48;11.93;;;2.40;99.90;;;;;;5014508;28;20067;-64
2023/12/06 06:52:48;;;;;;;14.88;11.32;;;2.40;99.90;;;;;;5012225;28;20191;-64
2023/12/06 06:55:14;;;;;;;12.43;10.02;;;2.50;99.90;;;;;;5012925;28;20025;-64
2023/12/06 06:57:40;;;;;;;19.77;15.48;;;2.50;99.90;;;;;;5012493;28;20399;-64
2023/12/06 07:00:13;;;;;;;18.70;16.17;;;2.50;99.90;;;;;;5007804;28;20034;-64
2023/12/06 07:02:39;;;;;;;16.30;13.45;;;2.60;99.90;;;;;;5002876;28;20465;-64
2023/12/06 07:05:06;;;;;;;13.38;10.68;;;2.60;99.90;;;;;;5012493;28;20038;-70
2023/12/06 07:07:31;;;;;;;14.27;10.93;;;2.60;99.90;;;;;;5008300;28;20128;-65
2023/12/06 07:09:57;;;;;;;16.88;10.35;;;2.70;99.90;;;;;;5011734;28;20056;-64
2023/12/06 07:12:22;;;;;;;19.30;12.63;;;2.70;99.90;;;;;;5013517;28;20033;-64
2023/12/06 07:14:48;;;;;;;14.63;10.50;;;2.70;99.90;;;;;;5011636;28;20667;-64
2023/12/06 07:17:14;;;;;;;12.95;9.90;;;2.70;99.90;;;;;;5012121;28;20029;-64
2023/12/06 07:19:39;;;;;;;14.70;11.75;;;2.70;99.90;;;;;;5006642;28;20510;-65
2023/12/06 07:22:06;;;;;;;15.20;12.80;;;2.70;99.90;;;;;;5009970;28;20041;-64
2023/12/06 07:24:32;;;;;;;12.98;10.75;;;2.70;99.90;;;;;;5003831;28;20839;-64
2023/12/06 07:26:57;;;;;;;14.30;11.82;;;2.80;99.90;;;;;;5007775;28;20048;-64
2023/12/06 07:29:23;;;;;;;16.08;13.25;;;2.80;99.90;;;;;;5004036;28;20056;-64
2023/12/06 07:31:50;;;;;;;16.40;13.63;;;2.80;99.90;;;;;;5006836;28;20243;-64
2023/12/06 07:34:17;;;;;;;14.52;11.63;;;2.90;99.90;;;;;;5006561;28;20038;-64
2023/12/06 07:36:44;;;;;;;13.23;10.65;;;2.90;99.90;;;;;;5010533;28;20887;-65
2023/12/06 07:39:11;;;;;;;17.80;13.50;;;2.90;99.90;;;;;;5012126;28;20374;-64
2023/12/06 07:41:36;;;;;;;15.43;11.70;;;3.00;99.90;;;;;;5004687;28;20103;-64
2023/12/06 07:44:02;;;;;;;17.25;12.85;;;3.00;99.90;;;;;;5005902;28;20421;-70
2023/12/06 07:46:27;;;;;;;17.98;12.23;;;3.00;99.90;;;;;;5013056;28;20417;-69
2023/12/06 07:48:53;;;;;;;18.17;12.00;;;3.00;99.90;;;;;;5014286;28;20064;-70
2023/12/06 07:51:19;;;;;;;19.02;13.65;;;3.00;99.90;;;;;;5014445;28;20038;-69
2023/12/06 07:53:44;;;;;;;17.05;13.15;;;3.00;99.90;;;;;;5000213;28;20034;-70
2023/12/06 07:56:10;;;;;;;17.33;13.02;;;3.00;99.90;;;;;;5017640;28;20044;-70
2023/12/06 07:58:37;;;;;;;14.98;11.18;;;3.10;99.90;;;;;;5012114;28;20037;-69
2023/12/06 08:01:03;;;;;;;15.90;11.50;;;3.10;99.90;;;;;;5011685;28;20411;-70
2023/12/06 08:03:31;;;;;;;14.43;10.63;;;3.10;99.90;;;;;;5010195;28;20095;-64
2023/12/06 08:05:59;;;;;;;13.52;10.30;;;3.00;99.90;;;;;;5012362;28;20030;-64
2023/12/06 08:08:28;;;;;;;16.35;11.13;;;3.10;99.90;;;;;;5015293;28;20046;-65
2023/12/06 08:10:54;;;;;;;14.95;11.23;;;3.10;99.90;;;;;;5013157;28;20359;-65
2023/12/06 08:13:20;;;;;;;16.55;11.88;;;3.10;99.90;;;;;;5008220;28;20030;-64
2023/12/06 08:15:45;;;;;;;24.48;19.15;;;3.10;99.90;;;;;;5010458;28;20499;-64
2023/12/06 08:18:11;;;;;;;20.83;16.85;;;3.20;99.90;;;;;;5014935;28;20026;-64
2023/12/06 08:20:37;;;;;;;19.42;15.82;;;3.20;99.90;;;;;;5012535;28;20666;-64
2023/12/06 08:23:03;;;;;;;18.77;13.75;;;3.10;99.90;;;;;;5011743;28;20049;-64
2023/12/06 08:25:29;;;;;;;15.60;12.55;;;3.20;99.90;;;;;;5011652;28;20029;-64
2023/12/06 08:27:55;;;;;;;17.60;13.00;;;3.20;99.90;;;;;;5016342;28;20535;-64
2023/12/06 08:30:20;;;;;;;18.38;12.00;;;3.20;99.90;;;;;;5009839;28;20116;-64
2023/12/06 08:32:46;;;;;;;15.75;11.70;;;3.30;99.90;;;;;;5016201;28;20452;-64
2023/12/06 08:35:12;;;;;;;18.90;12.90;;;3.30;99.90;;;;;;5012612;28;20038;-64
2023/12/06 08:37:40;;;;;;;17.98;12.60;;;3.30;99.90;;;;;;5014547;28;20040;-64
2023/12/06 08:40:08;;;;;;;20.45;12.00;;;3.30;99.90;;;;;;5015273;28;20279;-65
2023/12/06 08:42:34;;;;;;;16.45;11.38;;;3.30;99.90;;;;;;5013536;28;20025;-64
2023/12/06 08:44:59;;;;;;;20.90;14.35;;;3.40;99.90;;;;;;5010873;28;20026;-65
2023/12/06 08:47:25;;;;;;;17.50;11.85;;;3.40;99.90;;;;;;5003384;28;20502;-64
2023/12/06 08:49:51;;;;;;;17.23;14.00;;;3.40;99.90;;;;;;5014803;28;20069;-65
2023/12/06 08:52:16;;;;;;;19.35;13.75;;;3.40;99.90;;;;;;5020991;28;20087;-65
2023/12/06 08:54:42;;;;;;;16.45;11.82;;;3.50;99.90;;;;;;5012409;28;20037;-65
2023/12/06 08:57:08;;;;;;;15.90;11.57;;;3.40;99.90;;;;;;5009232;28;20447;-65
2023/12/06 08:59:33;;;;;;;16.13;12.85;;;3.40;99.90;;;;;;5014947;28;20026;-64
2023/12/06 09:01:59;;;;;;;20.83;13.43;;;3.40;99.90;;;;;;5013359;28;20041;-64
2023/12/06 09:04:24;;;;;;;19.00;11.88;;;3.50;99.90;;;;;;5011825;28;20029;-64
2023/12/06 09:06:50;;;;;;;17.58;11.60;;;3.50;99.90;;;;;;5014895;28;20478;-65
2023/12/06 09:09:18;;;;;;;15.90;11.23;;;3.50;99.90;;;;;;5015934;28;20038;-65
2023/12/06 09:11:45;;;;;;;19.33;12.32;;;3.50;99.90;;;;;;5010427;28;20107;-65
2023/12/06 09:14:11;;;;;;;20.05;13.13;;;3.60;99.90;;;;;;5014022;28;20095;-65
2023/12/06 09:16:36;;;;;;;18.52;12.82;;;3.60;99.90;;;;;;5013377;28;20030;-64
2023/12/06 09:19:03;;;;;;;17.30;12.73;;;3.60;99.90;;;;;;5016156;28;20426;-64
2023/12/06 09:21:39;;;;;;;18.23;13.20;;;3.60;99.90;;;;;;5011608;28;20041;-65
2023/12/06 09:24:06;;;;;;;19.70;12.60;;;3.70;99.90;;;;;;5012196;28;20042;-65
2023/12/06 09:26:32;;;;;;;18.67;12.75;;;3.70;99.90;;;;;;5010675;28;20021;-64
2023/12/06 09:28:57;;;;;;;17.98;12.27;;;3.70;99.90;;;;;;5012956;28;20053;-65
2023/12/06 09:31:23;;;;;;;18.10;11.93;;;3.70;99.90;;;;;;5005070;28;20041;-65
2023/12/06 09:33:49;;;;;;;15.57;11.25;;;3.70;99.90;;;;;;5000578;28;20397;-65
2023/12/06 09:36:14;;;;;;;17.00;11.45;;;3.70;99.90;;;;;;5003581;28;20038;-65
2023/12/06 09:38:40;;;;;;;17.52;12.27;;;3.80;99.90;;;;;;5006442;28;20041;-65
2023/12/06 09:41:06;;;;;;;15.00;10.90;;;3.80;99.90;;;;;;5010839;28;20680;-64
2023/12/06 09:43:33;;;;;;;14.77;10.68;;;3.80;99.90;;;;;;5010828;28;20413;-65
2023/12/06 09:45:58;;;;;;;15.18;10.75;;;3.80;99.90;;;;;;5005922;28;20506;-65
2023/12/06 09:48:24;;;;;;;15.13;10.50;;;3.90;99.90;;;;;;5006517;28;20040;-65
2023/12/06 09:50:50;;;;;;;12.45;9.27;;;3.90;99.90;;;;;;5008166;28;20041;-65
2023/12/06 09:53:16;;;;;;;14.60;10.48;;;3.90;99.90;;;;;;5008164;28;20298;-65
2023/12/06 09:55:41;;;;;;;14.82;10.50;;;3.90;99.90;;;;;;5006362;28;20050;-64
2023/12/06 09:58:07;;;;;;;13.98;9.60;;;3.90;99.90;;;;;;5006522;28;20493;-65
2023/12/06 10:00:34;;;;;;;14.38;9.43;;;3.90;99.90;;;;;;5004737;28;20084;-65
2023/12/06 10:03:00;;;;;;;13.63;10.38;;;3.90;99.90;;;;;;5004149;28;20749;-65
2023/12/06 10:05:26;;;;;;;12.80;9.82;;;4.00;99.90;;;;;;5007307;28;20040;-65
2023/12/06 10:07:51;;;;;;;11.18;8.25;;;4.00;99.90;;;;;;5006383;28;20107;-65
2023/12/06 10:10:22;;;;;;;11.50;8.93;;;4.00;99.90;;;;;;5008896;28;20029;-65
2023/12/06 10:12:55;;;;;;;13.68;9.70;;;4.00;99.90;;;;;;5009362;28;20619;-65
2023/12/06 10:15:22;;;;;;;13.25;10.15;;;4.10;99.90;;;;;;5008243;28;20144;-65
2023/12/06 10:17:48;;;;;;;12.63;8.70;;;4.10;99.90;;;;;;5012112;28;20044;-65
2023/12/06 10:20:15;;;;;;;12.18;9.45;;;4.10;99.90;;;;;;5014301;28;20160;-65
2023/12/06 10:22:41;;;;;;;13.98;9.57;;;4.20;99.90;;;;;;5016218;28;20036;-65
2023/12/06 10:25:08;;;;;;;12.35;9.75;;;4.20;99.90;;;;;;5012310;28;20037;-64
2023/12/06 10:27:35;;;;;;;10.93;8.38;;;4.20;99.90;;;;;;5009571;28;20585;-65
2023/12/06 10:30:05;;;;;;;10.10;7.55;;;4.20;99.90;;;;;;5011155;28;20034;-70
2023/12/06 10:32:32;;;;;;;10.48;8.02;;;4.10;99.90;;;;;;5010235;28;20860;-70
2023/12/06 10:35:05;;;;;;;10.45;8.07;;;4.10;99.90;;;;;;5009665;28;20052;-71
2023/12/06 10:37:31;;;;;;;10.98;7.60;;;4.10;99.90;;;;;;5011456;28;20502;-71
2023/12/06 10:40:09;;;;;;;11.57;8.32;;;4.20;99.90;;;;;;5013209;28;20091;-71
2023/12/06 10:42:36;;;;;;;10.38;8.07;;;4.20;99.90;;;;;;5009607;28;20037;-70
2023/12/06 10:45:03;;;;;;;11.45;7.47;;;4.20;99.90;;;;;;5013973;28;20029;-71
2023/12/06 10:47:30;;;;;;;11.82;8.45;;;4.30;99.90;;;;;;5011082;28;20099;-71
2023/12/06 10:49:56;;;;;;;13.88;8.93;;;4.20;99.90;;;;;;5007303;28;20124;-71
2023/12/06 10:52:23;;;;;;;12.00;8.65;;;4.20;99.90;;;;;;5001385;28;20508;-71
2023/12/06 10:54:50;;;;;;;11.77;8.68;;;4.20;99.90;;;;;;5011444;28;20033;-71
2023/12/06 10:57:17;;;;;;;12.90;9.02;;;4.20;99.90;;;;;;5014436;28;20211;-70
2023/12/06 10:59:45;;;;;;;12.52;8.40;;;4.20;99.90;;;;;;5012269;28;20048;-70
2023/12/06 11:02:11;;;;;;;11.23;8.18;;;4.20;99.90;;;;;;5013093;28;20072;-70
2023/12/06 11:04:42;;;;;;;12.63;9.00;;;4.20;99.90;;;;;;5015768;28;20430;-71
2023/12/06 11:07:29;;;;;;;11.40;8.77;;;4.10;99.90;;;;;;5014253;28;20400;-71
2023/12/06 11:10:18;;;;;;;12.07;8.68;;;4.10;99.90;;;;;;5013814;28;20662;-70
2023/12/06 11:13:06;;;;;;;12.50;8.98;;;4.00;99.90;;;;;;5015517;28;20025;-71
2023/12/06 11:15:57;;;;;;;13.73;9.60;;;4.00;99.90;;;;;;5015893;28;20088;-70
2023/12/06 11:18:30;;;;;;;27.02;17.08;;;4.10;99.90;;;;;;5012848;28;20494;-70
2023/12/06 11:20:56;;;;;;;22.27;14.80;;;4.10;99.90;;;;;;5015200;28;20561;-71
2023/12/06 11:23:22;;;;;;;36.35;22.17;;;4.00;99.90;;;;;;5012052;28;20052;-65
2023/12/06 11:25:50;;;;;;;48.35;28.58;;;4.10;99.90;;;;;;5011596;28;20033;-65
2023/12/06 11:28:17;;;;;;;50.17;27.95;;;4.10;99.90;;;;;;5014528;28;20064;-65
2023/12/06 11:30:50;;;;;;;83.57;47.28;;;4.10;99.90;;;;;;5012277;28;20041;-64
2023/12/06 11:33:16;;;;;;;47.25;28.70;;;4.10;99.90;;;;;;5017810;28;20203;-65
2023/12/06 11:35:45;;;;;;;34.17;22.35;;;4.10;99.90;;;;;;5017700;28;20025;-65
2023/12/06 11:38:11;;;;;;;32.33;20.85;;;4.20;99.90;;;;;;5016752;28;20045;-65
2023/12/06 11:40:37;;;;;;;20.02;13.68;;;4.20;99.90;;;;;;5016822;28;20041;-65
2023/12/06 11:43:02;;;;;;;20.80;12.57;;;4.20;99.90;;;;;;5016325;28;20026;-71
2023/12/06 11:45:30;;;;;;;111.93;40.42;;;4.20;99.90;;;;;;5014058;28;20083;-71
2023/12/06 11:48:00;;;;;;;20.52;12.63;;;4.20;99.90;;;;;;5008821;28;20040;-71
2023/12/06 11:50:26;;;;;;;16.95;13.00;;;4.30;99.90;;;;;;5010639;28;20713;-71
2023/12/06 11:52:53;;;;;;;12.57;8.48;;;4.30;99.90;;;;;;5010237;28;20053;-71
2023/12/06 11:55:21;;;;;;;11.93;9.55;;;4.40;99.90;;;;;;5012989;28;20033;-71
2023/12/06 11:58:09;;;;;;;11.65;8.50;;;4.40;99.90;;;;;;5017465;28;20052;-71
2023/12/06 12:00:39;;;;;;;12.32;8.93;;;4.30;99.90;;;;;;5008506;28;20702;-71
2023/12/06 12:03:06;;;;;;;11.30;9.02;;;4.30;99.90;;;;;;5020415;28;20021;-70
2023/12/06 12:05:32;;;;;;;13.20;8.48;;;4.30;99.90;;;;;;5013670;28;20674;-71
2023/12/06 12:08:01;;;;;;;11.63;8.93;;;4.30;99.90;;;;;;5014584;28;20068;-72
2023/12/06 12:10:27;;;;;;;10.35;8.10;;;4.30;99.90;;;;;;5018432;28;20036;-72
2023/12/06 12:12:53;;;;;;;12.18;7.97;;;4.30;99.90;;;;;;5017145;28;20546;-72
2023/12/06 12:15:19;;;;;;;11.02;8.23;;;4.20;99.90;;;;;;5011651;28;20041;-71
2023/12/06 12:17:45;;;;;;;10.63;7.70;;;4.20;99.90;;;;;;5004183;28;20040;-72
2023/12/06 12:20:14;;;;;;;11.73;8.95;;;4.20;99.90;;;;;;5014403;28;20487;-72
2023/12/06 12:22:50;;;;;;;11.07;7.72;;;4.20;99.90;;;;;;5015617;28;20065;-71
2023/12/06 12:25:17;;;;;;;12.77;8.73;;;4.10;99.90;;;;;;5017470;28;20389;-72
2023/12/06 12:27:44;;;;;;;12.05;9.27;;;4.20;99.90;;;;;;5010124;28;21685;-71
2023/12/06 12:30:12;;;;;;;11.45;8.80;;;4.20;99.90;;;;;;5015467;28;20025;-72
2023/12/06 12:32:40;;;;;;;13.73;9.18;;;4.20;99.90;;;;;;5015726;28;20018;-71
2023/12/06 12:35:07;;;;;;;14.23;8.88;;;4.20;99.90;;;;;;5019483;28;20033;-72